createdAt,value
2019-03-18T00:00:28.092Z,5.60
2019-03-18T00:02:56.940Z,3.30
2019-03-18T00:05:26.029Z,3.40
2019-03-18T00:07:55.114Z,7.90
2019-03-18T00:10:24.242Z,4.83
2019-03-18T00:12:53.387Z,3.30
2019-03-18T00:15:22.250Z,3.73
2019-03-18T00:17:51.339Z,3.43
2019-03-18T00:20:20.123Z,3.63
2019-03-18T00:22:49.011Z,5.77
2019-03-18T00:25:17.779Z,4.23
2019-03-18T00:27:46.970Z,4.00
2019-03-18T00:30:15.990Z,5.70
2019-03-18T00:32:44.975Z,5.13
2019-03-18T00:35:14.265Z,3.93
2019-03-18T00:37:43.441Z,7.93
2019-03-18T00:40:12.755Z,4.13
2019-03-18T00:42:41.516Z,3.93
2019-03-18T00:45:15.155Z,4.20
2019-03-18T00:47:41.732Z,5.67
2019-03-18T00:50:10.769Z,4.67
2019-03-18T00:52:39.958Z,4.40
2019-03-18T00:55:08.881Z,5.57
2019-03-18T00:57:37.793Z,4.40
2019-03-18T01:00:07.041Z,7.27
2019-03-18T01:02:36.176Z,5.70
2019-03-18T01:05:05.671Z,8.97
2019-03-18T01:07:34.525Z,5.57
2019-03-18T01:10:03.394Z,6.43
2019-03-18T01:12:32.465Z,6.47
2019-03-18T01:15:01.497Z,5.90
2019-03-18T01:17:30.721Z,6.20
2019-03-18T01:19:59.620Z,4.83
2019-03-18T01:22:28.792Z,5.93
2019-03-18T01:24:57.855Z,7.03
2019-03-18T01:27:26.608Z,7.60
2019-03-18T01:29:55.730Z,4.43
2019-03-18T01:32:24.776Z,7.93
2019-03-18T01:34:54.165Z,5.70
2019-03-18T01:37:22.928Z,6.87
2019-03-18T01:39:52.254Z,4.10
2019-03-18T01:42:21.320Z,5.30
2019-03-18T01:44:50.487Z,4.87
2019-03-18T01:47:19.259Z,5.87
2019-03-18T01:49:48.036Z,5.73
2019-03-18T01:52:17.635Z,5.60
2019-03-18T01:54:46.397Z,6.80
2019-03-18T01:57:15.871Z,8.47
2019-03-18T01:59:44.643Z,6.77
2019-03-18T02:02:13.395Z,5.80
2019-03-18T02:04:42.203Z,6.37
2019-03-18T02:07:11.038Z,8.40
2019-03-18T02:09:40.156Z,6.37
2019-03-18T02:12:08.938Z,4.80
2019-03-18T02:14:38.038Z,7.33
2019-03-18T02:17:07.122Z,6.73
2019-03-18T02:19:36.757Z,4.60
2019-03-18T02:22:05.858Z,4.67
2019-03-18T02:24:35.504Z,6.40
2019-03-18T02:27:04.762Z,5.97
2019-03-18T02:29:33.765Z,5.77
2019-03-18T02:32:03.416Z,5.43
2019-03-18T02:34:32.162Z,7.10
2019-03-18T02:37:00.965Z,5.33
2019-03-18T02:39:30.086Z,5.63
2019-03-18T02:41:58.862Z,6.63
2019-03-18T02:44:27.992Z,8.40
2019-03-18T02:46:57.133Z,4.97
2019-03-18T02:49:25.915Z,6.97
2019-03-18T02:51:54.684Z,7.33
2019-03-18T02:54:23.444Z,6.07
2019-03-18T02:56:52.976Z,7.70
2019-03-18T02:59:21.743Z,8.20
2019-03-18T03:01:50.615Z,6.70
2019-03-18T03:04:19.464Z,5.80
2019-03-18T03:06:48.587Z,9.13
2019-03-18T03:09:17.350Z,5.73
2019-03-18T03:11:46.138Z,5.00
2019-03-18T03:14:14.958Z,4.73
2019-03-18T03:16:43.744Z,5.53
2019-03-18T03:19:12.816Z,4.87
2019-03-18T03:21:41.623Z,8.27
2019-03-18T03:24:10.881Z,6.17
2019-03-18T03:26:39.943Z,5.20
2019-03-18T03:29:08.704Z,5.77
2019-03-18T03:31:37.540Z,5.13
2019-03-18T03:34:12.880Z,5.93
2019-03-18T03:36:36.877Z,5.67
2019-03-18T03:39:07.236Z,7.57
2019-03-18T03:41:35.996Z,6.90
2019-03-18T03:44:04.768Z,4.90
2019-03-18T03:46:43.153Z,5.57
2019-03-18T03:49:04.083Z,4.83
2019-03-18T03:51:32.999Z,3.53
2019-03-18T03:54:01.805Z,3.77
2019-03-18T03:56:30.945Z,6.10
2019-03-18T03:58:59.824Z,6.87
2019-03-18T04:01:29.847Z,5.83
2019-03-18T04:03:58.676Z,4.40
2019-03-18T04:06:27.834Z,5.37
2019-03-18T04:08:56.675Z,6.20
2019-03-18T04:11:25.459Z,9.37
2019-03-18T04:13:54.203Z,4.90
2019-03-18T04:16:22.992Z,5.70
2019-03-18T04:18:52.506Z,6.67
2019-03-18T04:21:21.591Z,5.30
2019-03-18T04:23:50.358Z,6.73
2019-03-18T04:26:19.540Z,10.03
2019-03-18T04:28:48.328Z,6.60
2019-03-18T04:31:17.109Z,6.50
2019-03-18T04:33:46.245Z,8.13
2019-03-18T04:36:15.016Z,11.10
2019-03-18T04:38:44.102Z,6.13
2019-03-18T04:41:12.944Z,5.90
2019-03-18T04:43:41.794Z,4.57
2019-03-18T04:46:10.552Z,5.27
2019-03-18T04:48:39.602Z,5.67
2019-03-18T04:51:09.009Z,5.00
2019-03-18T04:53:38.136Z,3.93
2019-03-18T04:56:06.921Z,7.50
2019-03-18T04:58:35.699Z,3.57
2019-03-18T05:01:04.485Z,5.23
2019-03-18T05:03:33.912Z,6.43
2019-03-18T05:06:02.776Z,6.17
2019-03-18T05:08:31.654Z,4.80
2019-03-18T05:11:00.702Z,5.17
2019-03-18T05:13:29.489Z,6.00
2019-03-18T05:15:58.572Z,7.23
2019-03-18T05:18:27.703Z,6.53
2019-03-18T05:20:56.798Z,8.17
2019-03-18T05:23:25.852Z,5.13
2019-03-18T05:25:54.705Z,4.13
2019-03-18T05:28:23.467Z,4.33
2019-03-18T05:30:52.568Z,4.23
2019-03-18T05:33:21.663Z,3.43
2019-03-18T05:35:50.419Z,5.40
2019-03-18T05:38:19.537Z,3.73
2019-03-18T05:40:48.576Z,3.23
2019-03-18T05:43:17.644Z,7.37
2019-03-18T05:45:46.491Z,3.97
2019-03-18T05:48:15.272Z,3.00
2019-03-18T05:50:44.022Z,3.90
2019-03-18T05:53:12.903Z,4.60
2019-03-18T05:55:41.973Z,4.60
2019-03-18T05:58:10.783Z,5.40
2019-03-18T06:00:39.697Z,3.43
2019-03-18T06:03:08.544Z,5.53
2019-03-18T06:05:37.317Z,4.97
2019-03-18T06:08:06.086Z,5.13
2019-03-18T06:10:34.909Z,4.30
2019-03-18T06:13:03.672Z,3.53
2019-03-18T06:15:32.457Z,5.53
2019-03-18T06:18:01.315Z,6.50
2019-03-18T06:20:30.382Z,4.87
2019-03-18T06:22:59.499Z,3.90
2019-03-18T06:25:28.355Z,6.13
2019-03-18T06:27:57.960Z,5.60
2019-03-18T06:30:27.238Z,4.93
2019-03-18T06:32:56.130Z,7.63
2019-03-18T06:35:25.139Z,8.47
2019-03-18T06:37:53.904Z,6.17
2019-03-18T06:40:22.981Z,6.00
2019-03-18T06:42:52.215Z,5.53
2019-03-18T06:45:21.071Z,11.27
2019-03-18T06:47:49.836Z,8.03
2019-03-18T06:50:18.639Z,5.57
2019-03-18T06:52:47.559Z,5.27
2019-03-18T06:55:16.922Z,6.70
2019-03-18T06:57:45.722Z,5.03
2019-03-18T07:00:14.965Z,8.23
2019-03-18T07:02:44.067Z,6.30
2019-03-18T07:05:13.171Z,8.60
2019-03-18T07:07:42.241Z,9.07
2019-03-18T07:10:11.192Z,14.87
2019-03-18T07:12:40.054Z,11.80
2019-03-18T07:15:09.121Z,11.67
2019-03-18T07:17:38.225Z,11.70
2019-03-18T07:20:07.903Z,15.93
2019-03-18T07:22:36.674Z,7.00
2019-03-18T07:25:05.853Z,8.40
2019-03-18T07:27:35.037Z,7.97
2019-03-18T07:30:04.455Z,13.83
2019-03-18T07:32:33.538Z,8.80
2019-03-18T07:35:02.341Z,7.47
2019-03-18T07:37:31.089Z,7.43
2019-03-18T07:40:00.338Z,11.47
2019-03-18T07:42:30.349Z,9.00
2019-03-18T07:44:59.160Z,13.33
2019-03-18T07:47:28.185Z,12.40
2019-03-18T07:49:56.978Z,15.23
2019-03-18T07:52:25.927Z,9.60
2019-03-18T07:54:54.704Z,14.37
2019-03-18T07:57:23.498Z,7.80
2019-03-18T07:59:52.551Z,8.97
2019-03-18T08:02:21.393Z,7.03
2019-03-18T08:04:50.192Z,12.00
2019-03-18T08:07:19.026Z,8.07
2019-03-18T08:09:48.524Z,8.67
2019-03-18T08:12:17.545Z,16.10
2019-03-18T08:14:46.600Z,12.10
2019-03-18T08:17:15.788Z,8.67
2019-03-18T08:19:44.862Z,15.10
2019-03-18T08:22:13.655Z,12.80
2019-03-18T08:24:42.778Z,10.67
2019-03-18T08:27:11.856Z,14.27
2019-03-18T08:29:40.632Z,16.83
2019-03-18T08:32:11.676Z,12.63
2019-03-18T08:34:40.286Z,14.03
2019-03-18T08:37:09.483Z,13.23
2019-03-18T08:39:38.559Z,12.90
2019-03-18T08:42:07.359Z,9.70
2019-03-18T08:44:36.163Z,18.10
2019-03-18T08:47:05.019Z,13.90
2019-03-18T08:49:34.202Z,12.17
2019-03-18T08:52:03.379Z,19.17
2019-03-18T08:54:32.837Z,8.77
2019-03-18T08:57:01.934Z,15.33
2019-03-18T08:59:30.785Z,19.20
2019-03-18T09:01:59.544Z,6.67
2019-03-18T09:04:28.846Z,10.23
2019-03-18T09:06:57.727Z,13.63
2019-03-18T09:09:26.831Z,13.63
2019-03-18T09:11:55.887Z,14.27
2019-03-18T09:14:24.743Z,13.47
2019-03-18T09:16:53.881Z,15.27
2019-03-18T09:19:22.680Z,13.57
2019-03-18T09:21:51.757Z,11.90
2019-03-18T09:24:20.838Z,16.97
2019-03-18T09:27:01.571Z,8.03
2019-03-18T09:29:21.080Z,11.97
2019-03-18T09:31:50.192Z,10.80
2019-03-18T09:34:18.979Z,13.00
2019-03-18T09:36:47.765Z,14.37
2019-03-18T09:39:16.779Z,14.80
2019-03-18T09:41:45.916Z,11.50
2019-03-18T09:44:15.045Z,11.00
2019-03-18T09:46:43.814Z,9.90
2019-03-18T09:49:21.571Z,11.03
2019-03-18T09:51:43.688Z,11.40
2019-03-18T09:54:12.893Z,13.73
2019-03-18T09:56:41.677Z,9.83
2019-03-18T09:59:10.804Z,8.27
2019-03-18T10:01:40.240Z,9.67
2019-03-18T10:04:09.645Z,8.97
2019-03-18T10:06:38.429Z,13.77
2019-03-18T10:09:09.064Z,11.60
2019-03-18T10:11:38.212Z,13.70
2019-03-18T10:14:07.252Z,13.20
2019-03-18T10:16:36.340Z,15.67
2019-03-18T10:19:05.197Z,8.17
2019-03-18T10:21:34.631Z,14.00
2019-03-18T10:24:04.390Z,9.60
2019-03-18T10:26:33.971Z,13.43
2019-03-18T10:29:02.809Z,14.03
2019-03-18T10:31:32.135Z,9.80
2019-03-18T10:34:00.911Z,11.20
2019-03-18T10:36:30.434Z,11.03
2019-03-18T10:39:00.254Z,10.77
2019-03-18T10:41:29.038Z,9.23
2019-03-18T10:43:57.858Z,12.53
2019-03-18T10:46:26.698Z,8.33
2019-03-18T10:48:55.818Z,7.83
2019-03-18T10:51:24.668Z,10.73
2019-03-18T10:53:54.154Z,12.63
2019-03-18T10:56:23.490Z,8.33
2019-03-18T10:58:52.609Z,14.27
2019-03-18T11:01:21.724Z,14.03
2019-03-18T11:03:50.542Z,15.07
2019-03-18T11:06:19.492Z,15.13
2019-03-18T11:08:48.383Z,9.63
2019-03-18T11:11:17.425Z,16.00
2019-03-18T11:13:46.782Z,6.77
2019-03-18T11:16:15.908Z,11.87
2019-03-18T11:18:45.267Z,14.33
2019-03-18T11:21:14.114Z,9.80
2019-03-18T11:23:43.243Z,17.47
2019-03-18T11:26:12.287Z,13.63
2019-03-18T11:28:41.049Z,7.30
2019-03-18T11:31:10.623Z,15.07
2019-03-18T11:33:39.755Z,13.10
2019-03-18T11:36:09.067Z,17.93
2019-03-18T11:38:37.922Z,9.30
2019-03-18T11:41:06.994Z,7.80
2019-03-18T11:43:35.783Z,5.00
2019-03-18T11:46:04.988Z,5.37
2019-03-18T11:48:34.524Z,6.57
2019-03-18T11:51:03.893Z,8.37
2019-03-18T11:53:32.714Z,6.37
2019-03-18T11:56:01.828Z,9.83
2019-03-18T11:58:31.204Z,9.97
2019-03-18T12:01:00.215Z,11.93
2019-03-18T12:03:29.595Z,9.80
2019-03-18T12:05:58.701Z,11.53
2019-03-18T12:08:27.915Z,9.10
2019-03-18T12:10:57.033Z,11.37
2019-03-18T12:13:25.869Z,8.40
2019-03-18T12:15:54.648Z,6.57
2019-03-18T12:18:24.255Z,7.67
2019-03-18T12:20:53.542Z,9.63
2019-03-18T12:23:22.397Z,7.97
2019-03-18T12:25:51.462Z,8.27
2019-03-18T12:28:21.233Z,5.70
2019-03-18T12:30:50.321Z,5.23
2019-03-18T12:33:19.108Z,8.83
2019-03-18T12:35:48.286Z,5.13
2019-03-18T12:38:17.425Z,8.20
2019-03-18T12:40:46.172Z,11.93
2019-03-18T12:43:15.288Z,15.13
2019-03-18T12:45:44.498Z,10.07
2019-03-18T12:48:13.439Z,8.60
2019-03-18T12:50:55.331Z,8.80
2019-03-18T12:53:13.550Z,8.17
2019-03-18T12:55:43.336Z,17.13
2019-03-18T12:58:12.442Z,12.70
2019-03-18T13:00:41.650Z,11.17
2019-03-18T13:03:11.147Z,8.30
2019-03-18T13:05:40.006Z,9.20
2019-03-18T13:08:09.165Z,18.27
2019-03-18T13:10:38.239Z,9.37
2019-03-18T13:13:07.533Z,10.87
2019-03-18T13:15:36.630Z,9.20
2019-03-18T13:18:06.059Z,9.17
2019-03-18T13:20:35.216Z,6.27
2019-03-18T13:23:04.321Z,6.63
2019-03-18T13:25:33.119Z,6.20
2019-03-18T13:28:01.959Z,7.30
2019-03-18T13:30:30.721Z,7.20
2019-03-18T13:32:59.997Z,8.87
2019-03-18T13:35:29.042Z,7.80
2019-03-18T13:37:58.160Z,9.27
2019-03-18T13:40:27.580Z,9.37
2019-03-18T13:42:57.000Z,6.60
2019-03-18T13:45:26.490Z,6.27
2019-03-18T13:47:55.263Z,7.20
2019-03-18T13:50:24.358Z,9.10
2019-03-18T13:52:53.459Z,10.40
2019-03-18T13:55:22.672Z,8.77
2019-03-18T13:57:52.887Z,4.43
2019-03-18T14:00:21.884Z,1.73
2019-03-18T14:02:50.753Z,3.00
2019-03-18T14:05:19.709Z,3.57
2019-03-18T14:07:59.710Z,1.93
2019-03-18T14:10:19.994Z,2.03
2019-03-18T14:12:48.837Z,2.90
2019-03-18T14:15:17.798Z,3.20
2019-03-18T14:17:46.669Z,7.67
2019-03-18T14:20:15.919Z,4.63
2019-03-18T14:22:44.849Z,3.27
2019-03-18T14:25:13.759Z,5.97
2019-03-18T14:27:43.141Z,9.13
2019-03-18T14:30:14.562Z,5.30
2019-03-18T14:32:43.698Z,5.37
2019-03-18T14:35:12.754Z,7.13
2019-03-18T14:37:42.364Z,12.13
2019-03-18T14:40:12.445Z,5.30
2019-03-18T14:42:41.717Z,5.33
2019-03-18T14:45:13.346Z,9.83
2019-03-18T14:47:42.230Z,4.00
2019-03-18T14:50:11.871Z,5.00
2019-03-18T14:52:40.970Z,6.17
2019-03-18T14:55:10.652Z,4.00
2019-03-18T14:57:40.338Z,10.43
2019-03-18T15:00:14.734Z,6.37
2019-03-18T15:02:44.216Z,5.63
2019-03-18T15:05:13.294Z,6.23
2019-03-18T15:07:42.062Z,3.00
2019-03-18T15:10:11.333Z,3.87
2019-03-18T15:12:40.488Z,3.53
2019-03-18T15:15:11.500Z,5.50
2019-03-18T15:17:40.588Z,5.10
2019-03-18T15:20:12.166Z,6.20
2019-03-18T15:22:40.433Z,12.57
2019-03-18T15:25:12.736Z,10.73
2019-03-18T15:27:41.539Z,13.53
2019-03-18T15:30:12.969Z,10.20
2019-03-18T15:32:42.178Z,14.33
2019-03-18T15:35:11.342Z,8.40
2019-03-18T15:37:40.345Z,6.60
2019-03-18T15:40:09.670Z,8.27
2019-03-18T15:42:39.454Z,9.83
2019-03-18T15:45:09.799Z,7.20
2019-03-18T15:47:38.874Z,8.17
2019-03-18T15:50:12.638Z,9.37
2019-03-18T15:52:40.881Z,7.00
2019-03-18T15:55:10.286Z,7.23
2019-03-18T15:57:39.150Z,14.83
2019-03-18T16:00:10.307Z,11.03
2019-03-18T16:02:39.082Z,13.60
2019-03-18T16:05:08.903Z,6.90
2019-03-18T16:07:38.383Z,8.70
2019-03-18T16:10:08.327Z,15.30
2019-03-18T16:12:37.766Z,8.73
2019-03-18T16:15:06.833Z,7.13
2019-03-18T16:17:36.099Z,5.73
2019-03-18T16:20:05.561Z,6.57
2019-03-18T16:22:35.024Z,7.27
2019-03-18T16:25:04.026Z,8.93
2019-03-18T16:27:33.166Z,8.53
2019-03-18T16:30:04.053Z,5.33
2019-03-18T16:32:33.069Z,11.13
2019-03-18T16:35:02.313Z,6.27
2019-03-18T16:37:31.622Z,12.60
2019-03-18T16:40:00.717Z,7.10
2019-03-18T16:42:30.129Z,10.00
2019-03-18T16:44:58.964Z,8.20
2019-03-18T16:47:28.015Z,7.67
2019-03-18T16:49:57.658Z,7.67
2019-03-18T16:52:35.202Z,5.70
2019-03-18T16:54:57.645Z,6.07
2019-03-18T16:57:26.939Z,6.63
2019-03-18T16:59:56.443Z,7.97
2019-03-18T17:02:26.068Z,8.67
2019-03-18T17:04:55.461Z,13.30
2019-03-18T17:07:24.544Z,11.03
2019-03-18T17:09:53.655Z,10.53
2019-03-18T17:12:22.440Z,11.60
2019-03-18T17:14:51.728Z,12.47
2019-03-18T17:17:21.043Z,12.90
2019-03-18T17:19:50.143Z,9.40
2019-03-18T17:22:19.163Z,14.13
2019-03-18T17:24:49.158Z,9.97
2019-03-18T17:27:18.359Z,23.00
2019-03-18T17:29:47.164Z,11.33
2019-03-18T17:32:16.220Z,12.67
2019-03-18T17:34:45.335Z,13.73
2019-03-18T17:37:14.432Z,13.13
2019-03-18T17:39:43.566Z,10.53
2019-03-18T17:42:12.661Z,8.03
2019-03-18T17:44:41.430Z,11.57
2019-03-18T17:47:10.212Z,9.47
2019-03-18T17:49:38.979Z,15.07
2019-03-18T17:52:07.775Z,15.57
2019-03-18T17:54:36.642Z,6.80
2019-03-18T17:57:07.432Z,7.73
2019-03-18T17:59:36.273Z,12.77
2019-03-18T18:02:05.132Z,9.50
2019-03-18T18:04:34.273Z,9.43
2019-03-18T18:07:03.123Z,8.77
2019-03-18T18:09:31.932Z,10.63
2019-03-18T18:12:01.334Z,13.70
2019-03-18T18:14:30.420Z,6.90
2019-03-18T18:16:59.197Z,8.47
2019-03-18T18:19:28.072Z,3.80
2019-03-18T18:21:56.831Z,8.93
2019-03-18T18:24:25.878Z,8.87
2019-03-18T18:26:54.651Z,9.37
2019-03-18T18:29:23.668Z,15.97
2019-03-18T18:31:52.447Z,10.27
2019-03-18T18:34:21.231Z,8.47
2019-03-18T18:36:50.008Z,12.30
2019-03-18T18:39:19.135Z,15.50
2019-03-18T18:41:48.339Z,13.83
2019-03-18T18:44:17.387Z,11.73
2019-03-18T18:46:46.526Z,12.20
2019-03-18T18:49:15.948Z,14.07
2019-03-18T18:51:44.793Z,12.57
2019-03-18T18:54:13.539Z,8.23
2019-03-18T18:56:42.564Z,10.20
2019-03-18T18:59:11.337Z,10.53
2019-03-18T19:01:40.227Z,13.47
2019-03-18T19:04:09.382Z,10.30
2019-03-18T19:06:38.515Z,13.67
2019-03-18T19:09:07.718Z,6.43
2019-03-18T19:11:36.513Z,10.40
2019-03-18T19:14:05.432Z,16.37
2019-03-18T19:16:34.830Z,10.20
2019-03-18T19:19:03.936Z,7.97
2019-03-18T19:21:32.733Z,15.73
2019-03-18T19:24:01.847Z,12.07
2019-03-18T19:26:30.627Z,8.50
2019-03-18T19:28:59.379Z,6.93
2019-03-18T19:31:28.483Z,16.03
2019-03-18T19:33:57.267Z,13.50
2019-03-18T19:36:26.281Z,9.80
2019-03-18T19:38:55.377Z,11.50
2019-03-18T19:41:24.471Z,11.00
2019-03-18T19:43:53.859Z,11.50
2019-03-18T19:46:23.276Z,13.70
2019-03-18T19:48:52.403Z,12.50
2019-03-18T19:51:21.452Z,11.87
2019-03-18T19:53:50.878Z,11.43
2019-03-18T19:56:20.031Z,14.07
2019-03-18T19:58:49.050Z,10.00
2019-03-18T20:01:18.177Z,9.93
2019-03-18T20:03:47.037Z,13.60
2019-03-18T20:06:16.449Z,9.33
2019-03-18T20:08:45.537Z,8.77
2019-03-18T20:11:14.300Z,12.60
2019-03-18T20:13:43.742Z,12.83
2019-03-18T20:16:12.881Z,10.23
2019-03-18T20:18:41.677Z,10.57
2019-03-18T20:21:10.688Z,6.83
2019-03-18T20:23:39.456Z,8.20
2019-03-18T20:26:09.109Z,12.00
2019-03-18T20:28:38.289Z,8.00
2019-03-18T20:31:07.065Z,9.37
2019-03-18T20:33:35.914Z,14.10
2019-03-18T20:36:04.760Z,8.53
2019-03-18T20:38:33.587Z,20.23
2019-03-18T20:41:02.959Z,15.17
2019-03-18T20:43:31.792Z,12.63
2019-03-18T20:46:00.569Z,10.87
2019-03-18T20:48:29.630Z,19.80
2019-03-18T20:50:58.727Z,23.70
2019-03-18T20:53:27.917Z,15.40
2019-03-18T20:55:56.756Z,13.70
2019-03-18T20:58:25.906Z,13.43
2019-03-18T21:00:54.771Z,21.53
2019-03-18T21:03:23.639Z,17.70
2019-03-18T21:05:52.446Z,8.47
2019-03-18T21:08:21.313Z,15.90
2019-03-18T21:10:50.092Z,9.23
2019-03-18T21:13:18.889Z,10.23
2019-03-18T21:15:47.667Z,13.60
2019-03-18T21:18:16.808Z,9.47
2019-03-18T21:20:45.597Z,15.67
2019-03-18T21:23:14.399Z,18.13
2019-03-18T21:25:43.573Z,8.40
2019-03-18T21:28:12.708Z,11.83
2019-03-18T21:30:41.593Z,11.10
2019-03-18T21:33:10.540Z,13.20
2019-03-18T21:35:39.503Z,12.27
2019-03-18T21:38:08.286Z,13.37
2019-03-18T21:40:37.561Z,15.40
2019-03-18T21:43:06.620Z,13.27
2019-03-18T21:45:35.426Z,10.70
2019-03-18T21:48:04.378Z,13.50
2019-03-18T21:50:33.163Z,12.70
2019-03-18T21:53:02.367Z,17.90
2019-03-18T21:55:31.904Z,14.50
2019-03-18T21:58:00.724Z,12.30
2019-03-18T22:00:29.593Z,9.23
2019-03-18T22:02:58.451Z,13.50
2019-03-18T22:05:27.516Z,12.67
2019-03-18T22:07:56.349Z,17.23
2019-03-18T22:10:25.457Z,8.67
2019-03-18T22:12:54.530Z,13.63
2019-03-18T22:15:23.581Z,14.57
2019-03-18T22:17:52.474Z,14.03
2019-03-18T22:20:22.416Z,13.13
2019-03-18T22:22:51.559Z,7.73
2019-03-18T22:25:20.366Z,12.20
2019-03-18T22:27:49.346Z,14.23
2019-03-18T22:30:18.621Z,9.73
2019-03-18T22:32:47.854Z,18.53
2019-03-18T22:35:16.811Z,11.27
2019-03-18T22:37:45.648Z,12.90
2019-03-18T22:40:14.796Z,13.50
2019-03-18T22:42:43.915Z,10.43
2019-03-18T22:45:13.138Z,13.07
2019-03-18T22:47:42.003Z,13.37
2019-03-18T22:50:11.563Z,10.23
2019-03-18T22:52:40.531Z,10.57
2019-03-18T22:55:09.755Z,8.17
2019-03-18T22:57:39.805Z,18.63
2019-03-18T23:00:26.930Z,9.67
2019-03-18T23:02:55.880Z,12.80
2019-03-18T23:05:25.048Z,12.17
2019-03-18T23:07:53.895Z,13.83
2019-03-18T23:10:22.685Z,12.53
2019-03-18T23:12:51.772Z,12.87
2019-03-18T23:15:20.601Z,12.67
2019-03-18T23:17:49.407Z,12.30
2019-03-18T23:20:18.562Z,16.57
2019-03-18T23:22:47.344Z,13.73
2019-03-18T23:25:16.199Z,13.43
2019-03-18T23:27:44.982Z,8.47
2019-03-18T23:30:13.919Z,12.37
2019-03-18T23:32:42.696Z,10.33
2019-03-18T23:35:12.090Z,13.83
2019-03-18T23:37:40.866Z,12.83
2019-03-18T23:40:10.184Z,9.87
2019-03-18T23:42:39.019Z,15.17
2019-03-18T23:45:08.831Z,16.60
2019-03-18T23:47:38.458Z,12.77
2019-03-18T23:50:07.812Z,15.87
2019-03-18T23:52:36.568Z,15.93
2019-03-18T23:55:17.825Z,15.77
2019-03-18T23:57:37.196Z,16.97
